createdAt,value
2019-03-01T00:01:55.997Z,4.77
2019-03-01T00:05:14.234Z,7.27
2019-03-01T00:08:19.973Z,7.50
2019-03-01T00:11:37.944Z,7.33
2019-03-01T00:15:05.103Z,10.10
2019-03-01T00:18:38.179Z,5.77
2019-03-01T00:22:13.629Z,7.97
2019-03-01T00:25:31.673Z,5.13
2019-03-01T00:29:07.936Z,6.47
2019-03-01T00:32:36.750Z,9.17
2019-03-01T00:36:00.916Z,7.93
2019-03-01T00:39:42.870Z,6.50
2019-03-01T00:43:16.128Z,9.83
2019-03-01T00:46:20.585Z,10.93
2019-03-01T00:49:25.277Z,7.67
2019-03-01T00:52:29.739Z,6.73
2019-03-01T00:55:34.182Z,7.23
2019-03-01T00:58:38.629Z,9.00
2019-03-01T01:01:43.395Z,7.00
2019-03-01T01:04:47.825Z,5.40
2019-03-01T01:07:52.262Z,4.33
2019-03-01T01:10:56.714Z,3.90
2019-03-01T01:14:01.151Z,3.33
2019-03-01T01:17:05.602Z,2.80
2019-03-01T01:20:10.882Z,3.87
2019-03-01T01:23:15.337Z,3.37
2019-03-01T01:26:19.782Z,4.03
2019-03-01T01:29:24.213Z,2.40
2019-03-01T01:32:28.654Z,3.77
2019-03-01T01:35:33.099Z,2.97
2019-03-01T01:38:37.546Z,3.10
2019-03-01T01:41:42.066Z,3.13
2019-03-01T01:44:46.748Z,4.30
2019-03-01T01:47:51.196Z,4.37
2019-03-01T01:50:55.901Z,3.30
2019-03-01T01:54:00.413Z,4.27
2019-03-01T01:57:04.861Z,2.37
2019-03-01T02:00:13.176Z,2.70
2019-03-01T02:03:17.612Z,3.33
2019-03-01T02:06:22.324Z,3.20
2019-03-01T02:09:26.843Z,3.03
2019-03-01T02:12:31.290Z,4.53
2019-03-01T02:15:35.798Z,1.93
2019-03-01T02:18:40.260Z,2.33
2019-03-01T02:21:45.258Z,2.07
2019-03-01T02:24:49.782Z,1.37
2019-03-01T02:27:54.723Z,2.83
2019-03-01T02:31:04.002Z,2.87
2019-03-01T02:34:08.792Z,2.50
2019-03-01T02:37:13.224Z,2.70
2019-03-01T02:40:18.138Z,3.03
2019-03-01T02:43:22.574Z,1.53
2019-03-01T02:46:27.005Z,2.47
2019-03-01T02:49:31.445Z,2.83
2019-03-01T02:52:36.248Z,1.70
2019-03-01T02:55:41.287Z,2.70
2019-03-01T02:58:46.030Z,1.93
2019-03-01T03:01:50.456Z,1.77
2019-03-01T03:04:55.387Z,3.63
2019-03-01T03:08:04.371Z,2.60
2019-03-01T03:11:09.138Z,2.70
2019-03-01T03:14:13.882Z,3.27
2019-03-01T03:17:18.703Z,3.00
2019-03-01T03:20:23.141Z,2.33
2019-03-01T03:23:27.582Z,2.90
2019-03-01T03:26:32.278Z,2.63
2019-03-01T03:29:36.722Z,2.70
2019-03-01T03:32:41.216Z,2.63
2019-03-01T03:35:45.643Z,3.93
2019-03-01T03:38:50.080Z,4.43
2019-03-01T03:41:54.507Z,4.47
2019-03-01T03:44:59.234Z,2.40
2019-03-01T03:48:03.661Z,3.20
2019-03-01T03:51:08.121Z,4.30
2019-03-01T03:54:12.544Z,2.80
2019-03-01T03:57:16.980Z,2.80
2019-03-01T04:00:25.585Z,4.30
2019-03-01T04:03:30.280Z,4.00
2019-03-01T04:06:35.114Z,1.57
2019-03-01T04:09:39.843Z,3.77
2019-03-01T04:12:44.277Z,2.47
2019-03-01T04:15:49.006Z,2.77
2019-03-01T04:18:53.742Z,3.00
2019-03-01T04:21:58.460Z,2.20
2019-03-01T04:25:02.969Z,2.97
2019-03-01T04:28:07.718Z,1.07
2019-03-01T04:31:12.154Z,2.93
2019-03-01T04:34:16.973Z,1.97
2019-03-01T04:37:21.492Z,2.07
2019-03-01T04:40:26.227Z,3.43
2019-03-01T04:43:30.662Z,1.37
2019-03-01T04:46:35.100Z,3.30
2019-03-01T04:49:39.543Z,1.53
2019-03-01T04:52:43.964Z,3.87
2019-03-01T04:55:48.659Z,2.37
2019-03-01T04:58:53.086Z,2.70
2019-03-01T05:01:57.805Z,3.37
2019-03-01T05:05:02.241Z,1.37
2019-03-01T05:08:06.668Z,1.20
2019-03-01T05:11:11.384Z,1.80
2019-03-01T05:14:16.125Z,2.33
2019-03-01T05:17:20.544Z,1.80
2019-03-01T05:20:25.271Z,2.87
2019-03-01T05:23:29.700Z,1.40
2019-03-01T05:26:34.129Z,2.07
2019-03-01T05:29:38.554Z,1.53
2019-03-01T05:32:43.270Z,1.70
2019-03-01T05:35:48.002Z,3.20
2019-03-01T05:38:52.422Z,2.03
2019-03-01T05:41:56.862Z,4.57
2019-03-01T05:45:01.292Z,1.70
2019-03-01T05:48:05.810Z,6.43
2019-03-01T05:51:10.251Z,4.57
2019-03-01T05:54:14.676Z,3.63
2019-03-01T05:57:19.380Z,1.70
2019-03-01T06:00:23.812Z,5.57
2019-03-01T06:03:44.954Z,2.63
2019-03-01T06:07:18.488Z,2.13
2019-03-01T06:10:43.017Z,1.13
2019-03-01T06:14:17.641Z,1.93
2019-03-01T06:17:54.698Z,1.13
2019-03-01T06:21:15.446Z,3.53
2019-03-01T06:24:52.894Z,1.23
2019-03-01T06:28:23.998Z,1.57
2019-03-01T06:32:08.345Z,3.00
2019-03-01T06:35:43.967Z,3.03
2019-03-01T06:39:33.997Z,2.73
2019-03-01T06:43:10.675Z,1.70
2019-03-01T06:46:54.878Z,3.07
2019-03-01T06:50:03.394Z,2.50
2019-03-01T06:53:07.827Z,2.57
2019-03-01T06:56:12.520Z,1.80
2019-03-01T06:59:16.952Z,1.33
2019-03-01T07:02:23.031Z,3.47
2019-03-01T07:05:27.453Z,4.20
2019-03-01T07:08:31.915Z,3.07
2019-03-01T07:11:36.676Z,2.13
2019-03-01T07:14:41.401Z,3.97
2019-03-01T07:17:45.842Z,1.37
2019-03-01T07:20:50.268Z,2.80
2019-03-01T07:23:55.034Z,1.83
2019-03-01T07:26:59.493Z,3.80
2019-03-01T07:30:09.262Z,2.40
2019-03-01T07:33:13.990Z,2.30
2019-03-01T07:36:18.718Z,2.13
2019-03-01T07:39:23.451Z,4.70
2019-03-01T07:42:27.881Z,2.60
2019-03-01T07:45:32.305Z,2.60
2019-03-01T07:48:37.016Z,2.80
2019-03-01T07:51:41.445Z,2.53
2019-03-01T07:54:45.877Z,2.80
2019-03-01T07:57:50.650Z,1.70
2019-03-01T08:00:55.439Z,4.67
2019-03-01T08:03:59.874Z,4.93
2019-03-01T08:07:04.591Z,3.00
2019-03-01T08:10:20.598Z,3.27
2019-03-01T08:13:20.997Z,1.93
2019-03-01T08:16:25.464Z,2.97
2019-03-01T08:19:30.167Z,5.67
2019-03-01T08:22:44.792Z,2.83
2019-03-01T08:25:41.367Z,2.63
2019-03-01T08:28:45.793Z,1.10
2019-03-01T08:31:52.770Z,1.33
2019-03-01T08:34:56.682Z,4.67
2019-03-01T08:38:01.113Z,1.33
2019-03-01T08:41:06.521Z,2.53
2019-03-01T08:44:11.394Z,1.77
2019-03-01T08:47:20.364Z,2.37
2019-03-01T08:50:22.599Z,3.87
2019-03-01T08:53:27.330Z,1.90
2019-03-01T08:56:32.062Z,2.10
2019-03-01T08:59:36.495Z,1.73
2019-03-01T09:02:41.134Z,4.77
2019-03-01T09:05:46.254Z,1.77
2019-03-01T09:08:50.696Z,1.63
2019-03-01T09:11:55.125Z,1.13
2019-03-01T09:14:59.561Z,1.87
2019-03-01T09:18:04.001Z,1.07
2019-03-01T09:21:12.372Z,2.87
2019-03-01T09:24:14.944Z,2.87
2019-03-01T09:27:19.381Z,4.13
2019-03-01T09:30:26.024Z,1.67
2019-03-01T09:33:30.779Z,1.40
2019-03-01T09:36:37.250Z,1.37
2019-03-01T09:39:41.970Z,1.07
2019-03-01T09:42:47.502Z,1.97
2019-03-01T09:45:52.633Z,1.63
2019-03-01T09:48:57.060Z,2.00
2019-03-01T09:52:01.820Z,2.03
2019-03-01T09:55:12.384Z,2.03
2019-03-01T09:58:17.119Z,1.00
2019-03-01T10:01:22.553Z,0.83
2019-03-01T10:04:26.984Z,3.60
2019-03-01T10:07:31.414Z,1.60
2019-03-01T10:10:36.648Z,4.40
2019-03-01T10:13:41.262Z,0.87
2019-03-01T10:16:46.317Z,2.00
2019-03-01T10:19:51.052Z,1.07
2019-03-01T10:22:55.776Z,0.90
2019-03-01T10:26:00.213Z,0.63
2019-03-01T10:29:04.636Z,2.73
2019-03-01T10:32:09.357Z,0.47
2019-03-01T10:35:15.838Z,1.20
2019-03-01T10:38:20.563Z,1.83
2019-03-01T10:41:25.006Z,1.67
2019-03-01T10:44:29.442Z,5.87
2019-03-01T10:47:34.133Z,1.63
2019-03-01T10:50:38.872Z,0.70
2019-03-01T10:53:43.298Z,5.43
2019-03-01T10:56:48.022Z,0.70
2019-03-01T10:59:52.445Z,1.70
2019-03-01T11:02:57.986Z,1.70
2019-03-01T11:06:02.590Z,0.67
2019-03-01T11:09:08.144Z,5.43
2019-03-01T11:12:12.909Z,5.70
2019-03-01T11:15:17.635Z,0.90
2019-03-01T11:18:22.060Z,1.07
2019-03-01T11:21:26.488Z,1.10
2019-03-01T11:24:31.210Z,4.13
2019-03-01T11:27:35.942Z,2.27
2019-03-01T11:30:40.443Z,1.33
2019-03-01T11:33:44.870Z,2.57
2019-03-01T11:36:49.743Z,3.00
2019-03-01T11:39:54.172Z,5.60
2019-03-01T11:42:58.991Z,2.87
2019-03-01T11:46:03.414Z,3.80
2019-03-01T11:49:07.839Z,7.17
2019-03-01T11:52:12.562Z,2.83
2019-03-01T11:55:17.701Z,2.43
2019-03-01T11:58:22.149Z,3.17
2019-03-01T12:01:26.587Z,2.80
2019-03-01T12:04:31.284Z,3.10
2019-03-01T12:07:35.720Z,3.13
2019-03-01T12:10:40.440Z,3.40
2019-03-01T12:13:44.871Z,2.93
2019-03-01T12:16:49.329Z,6.57
2019-03-01T12:19:53.743Z,3.13
2019-03-01T12:22:58.178Z,3.47
2019-03-01T12:26:03.004Z,3.00
2019-03-01T12:29:07.427Z,3.63
2019-03-01T12:32:11.858Z,2.93
2019-03-01T12:35:16.539Z,2.87
2019-03-01T12:38:21.274Z,4.40
2019-03-01T12:41:25.703Z,5.73
2019-03-01T12:44:30.136Z,3.87
2019-03-01T12:47:34.587Z,4.10
2019-03-01T12:50:39.275Z,3.63
2019-03-01T12:53:44.008Z,3.70
2019-03-01T12:56:48.738Z,4.47
2019-03-01T12:59:53.172Z,3.30
2019-03-01T13:02:57.613Z,4.43
2019-03-01T13:06:03.886Z,4.83
2019-03-01T13:09:13.173Z,3.67
2019-03-01T13:12:17.614Z,4.03
2019-03-01T13:15:22.445Z,4.13
2019-03-01T13:18:26.879Z,4.03
2019-03-01T13:21:31.314Z,4.87
2019-03-01T13:24:36.020Z,6.80
2019-03-01T13:27:40.565Z,4.83
2019-03-01T13:30:45.285Z,6.33
2019-03-01T13:33:49.727Z,4.83
2019-03-01T13:36:54.433Z,6.17
2019-03-01T13:39:58.886Z,5.33
2019-03-01T13:43:03.693Z,5.90
2019-03-01T13:46:08.419Z,5.43
2019-03-01T13:49:12.866Z,3.93
2019-03-01T13:52:17.883Z,4.40
2019-03-01T13:55:23.713Z,6.30
2019-03-01T13:58:28.674Z,5.73
2019-03-01T14:01:33.114Z,5.20
2019-03-01T14:04:40.370Z,4.13
2019-03-01T14:07:44.099Z,4.97
2019-03-01T14:10:48.823Z,4.40
2019-03-01T14:13:53.563Z,5.77
2019-03-01T14:16:58.001Z,6.03
2019-03-01T14:20:02.711Z,7.70
2019-03-01T14:23:07.163Z,6.43
2019-03-01T14:26:14.887Z,8.60
2019-03-01T14:29:18.038Z,7.37
2019-03-01T14:32:22.767Z,7.73
2019-03-01T14:35:27.503Z,7.80
2019-03-01T14:38:31.941Z,9.03
2019-03-01T14:41:36.649Z,8.53
2019-03-01T14:44:41.386Z,11.70
2019-03-01T14:47:45.821Z,8.90
2019-03-01T14:50:50.276Z,12.43
2019-03-01T14:53:55.063Z,13.00
2019-03-01T14:56:59.889Z,11.23
2019-03-01T15:00:12.904Z,9.90
2019-03-01T15:03:36.337Z,11.53
2019-03-01T15:06:41.330Z,10.50
2019-03-01T15:09:46.059Z,11.37
2019-03-01T15:12:53.977Z,11.30
2019-03-01T15:15:57.318Z,10.30
2019-03-01T15:19:04.801Z,12.70
2019-03-01T15:22:09.794Z,15.27
2019-03-01T15:25:14.627Z,12.20
2019-03-01T15:28:19.353Z,10.50
2019-03-01T15:31:24.191Z,11.90
2019-03-01T15:34:28.927Z,10.33
2019-03-01T15:37:35.188Z,9.37
2019-03-01T15:40:40.028Z,10.17
2019-03-01T15:43:44.460Z,11.47
2019-03-01T15:46:49.966Z,11.30
2019-03-01T15:49:55.083Z,11.53
2019-03-01T15:52:59.861Z,14.07
2019-03-01T15:56:05.948Z,10.73
2019-03-01T15:59:11.165Z,11.13
2019-03-01T16:02:15.902Z,11.83
2019-03-01T16:05:20.350Z,15.13
2019-03-01T16:08:24.787Z,13.10
2019-03-01T16:11:31.010Z,13.40
2019-03-01T16:14:35.855Z,17.30
2019-03-01T16:17:40.287Z,17.70
2019-03-01T16:20:44.756Z,15.43
2019-03-01T16:23:49.187Z,17.80
2019-03-01T16:26:53.946Z,17.43
2019-03-01T16:29:58.402Z,15.00
2019-03-01T16:33:03.105Z,18.13
2019-03-01T16:36:09.181Z,17.70
2019-03-01T16:39:14.135Z,17.37
2019-03-01T16:42:18.944Z,16.80
2019-03-01T16:45:23.423Z,19.37
2019-03-01T16:48:28.289Z,24.57
2019-03-01T16:51:32.742Z,18.53
2019-03-01T16:54:37.182Z,20.80
2019-03-01T16:57:41.874Z,18.13
2019-03-01T17:00:46.312Z,18.93
2019-03-01T17:03:52.788Z,20.83
2019-03-01T17:06:57.301Z,20.43
2019-03-01T17:10:01.741Z,17.37
2019-03-01T17:13:06.184Z,21.17
2019-03-01T17:16:10.625Z,22.97
2019-03-01T17:19:15.058Z,20.40
2019-03-01T17:22:19.511Z,25.37
2019-03-01T17:25:26.985Z,25.87
2019-03-01T17:28:30.409Z,22.10
2019-03-01T17:31:34.853Z,20.73
2019-03-01T17:34:40.174Z,24.53
2019-03-01T17:37:45.113Z,21.50
2019-03-01T17:40:49.844Z,22.27
2019-03-01T17:43:54.573Z,27.67
2019-03-01T17:46:59.410Z,21.37
2019-03-01T17:50:05.521Z,20.13
2019-03-01T17:53:11.329Z,20.67
2019-03-01T17:56:18.743Z,21.47
2019-03-01T17:59:23.351Z,22.57
2019-03-01T18:02:28.072Z,22.90
2019-03-01T18:05:32.808Z,22.23
2019-03-01T18:08:39.600Z,21.80
2019-03-01T18:11:44.558Z,25.80
2019-03-01T18:14:49.918Z,23.63
2019-03-01T18:17:54.362Z,22.07
2019-03-01T18:20:58.795Z,23.13
2019-03-01T18:24:03.543Z,25.43
2019-03-01T18:27:08.178Z,24.00
2019-03-01T18:30:22.838Z,26.47
2019-03-01T18:33:27.275Z,23.30
2019-03-01T18:36:32.455Z,28.07
2019-03-01T18:39:38.246Z,25.07
2019-03-01T18:42:43.499Z,33.93
2019-03-01T18:45:48.230Z,32.47
2019-03-01T18:48:53.008Z,27.97
2019-03-01T18:51:57.416Z,32.27
2019-03-01T18:55:01.858Z,29.47
2019-03-01T18:58:06.299Z,33.50
2019-03-01T19:01:11.987Z,40.10
2019-03-01T19:04:29.022Z,38.00
2019-03-01T19:07:24.350Z,36.10
2019-03-01T19:10:29.247Z,37.07
2019-03-01T19:13:33.683Z,43.47
2019-03-01T19:16:38.121Z,37.13
2019-03-01T19:19:42.570Z,37.30
2019-03-01T19:22:47.255Z,41.13
2019-03-01T19:25:51.686Z,41.63
2019-03-01T19:28:59.042Z,43.27
2019-03-01T19:32:02.669Z,39.27
2019-03-01T19:35:09.650Z,40.53
2019-03-01T19:38:14.388Z,43.07
2019-03-01T19:41:20.019Z,48.90
2019-03-01T19:44:25.654Z,47.27
2019-03-01T19:47:31.768Z,49.97
2019-03-01T19:50:36.486Z,50.40
2019-03-01T19:53:40.923Z,50.80
2019-03-01T19:56:45.643Z,50.40
2019-03-01T19:59:50.445Z,53.97
2019-03-01T20:02:54.870Z,50.90
2019-03-01T20:05:59.311Z,56.47
2019-03-01T20:09:05.266Z,50.13
2019-03-01T20:12:09.700Z,55.43
2019-03-01T20:15:18.211Z,52.83
2019-03-01T20:18:22.648Z,57.97
2019-03-01T20:21:27.376Z,49.13
2019-03-01T20:24:31.816Z,52.07
2019-03-01T20:27:39.032Z,53.43
2019-03-01T20:30:42.582Z,49.53
2019-03-01T20:33:47.327Z,68.87
2019-03-01T20:36:52.963Z,68.17
2019-03-01T20:39:57.929Z,46.33
2019-03-01T20:43:06.694Z,45.90
2019-03-01T20:46:08.839Z,47.37
2019-03-01T20:49:13.541Z,41.00
2019-03-01T20:52:18.272Z,41.73
2019-03-01T20:55:23.920Z,42.40
2019-03-01T20:58:28.580Z,42.47
2019-03-01T21:01:33.691Z,51.50
2019-03-01T21:04:40.446Z,41.57
2019-03-01T21:07:48.206Z,41.07
2019-03-01T21:10:52.234Z,42.37
2019-03-01T21:13:57.016Z,39.13
2019-03-01T21:17:01.771Z,38.60
2019-03-01T21:20:11.194Z,59.87
2019-03-01T21:23:16.001Z,112.33
2019-03-01T21:26:20.747Z,41.13
2019-03-01T21:29:25.190Z,40.50
2019-03-01T21:32:29.903Z,40.93
2019-03-01T21:35:34.631Z,39.60
2019-03-01T21:38:39.370Z,39.83
2019-03-01T21:41:44.844Z,40.90
2019-03-01T21:44:50.118Z,45.20
2019-03-01T21:47:54.547Z,43.50
2019-03-01T21:50:59.312Z,37.57
2019-03-01T21:54:03.749Z,44.27
2019-03-01T21:57:08.463Z,35.33
2019-03-01T22:00:17.332Z,43.73
2019-03-01T22:03:24.803Z,39.37
2019-03-01T22:06:28.295Z,42.20
2019-03-01T22:09:32.740Z,43.73
2019-03-01T22:12:37.345Z,40.17
2019-03-01T22:15:42.178Z,42.53
2019-03-01T22:18:46.905Z,46.20
2019-03-01T22:21:54.699Z,40.43
2019-03-01T22:24:58.673Z,39.20
2019-03-01T22:28:04.909Z,39.97
2019-03-01T22:31:09.626Z,44.50
2019-03-01T22:34:14.372Z,38.43
2019-03-01T22:37:19.085Z,39.77
2019-03-01T22:40:24.061Z,39.30
2019-03-01T22:43:29.686Z,38.80
2019-03-01T22:46:34.502Z,38.93
2019-03-01T22:49:39.248Z,40.67
2019-03-01T22:52:44.069Z,35.23
2019-03-01T22:55:48.518Z,39.20
2019-03-01T22:58:54.282Z,40.70
2019-03-01T23:01:59.707Z,44.90
2019-03-01T23:05:06.309Z,37.60
2019-03-01T23:08:11.115Z,40.00
2019-03-01T23:11:15.573Z,47.67
2019-03-01T23:14:20.012Z,40.30
2019-03-01T23:17:27.593Z,44.33
2019-03-01T23:20:30.946Z,47.07
2019-03-01T23:23:35.379Z,45.30
2019-03-01T23:26:40.102Z,40.13
2019-03-01T23:29:44.611Z,40.33
2019-03-01T23:32:52.649Z,42.03
2019-03-01T23:35:55.521Z,39.63
2019-03-01T23:39:00.250Z,41.33
2019-03-01T23:42:04.977Z,44.40
2019-03-01T23:45:13.753Z,43.93
2019-03-01T23:48:18.130Z,45.57
2019-03-01T23:51:22.574Z,47.87
2019-03-01T23:54:27.281Z,43.70
2019-03-01T23:57:31.721Z,47.33
